Time;durP1;ratioP1;P1;durP2;ratioP2;P2;SDS_P1;SDS_P2;PMS_P1;PMS_P2;Temp;Humidity;BMP_temperature;BMP_pressure;BME280_temperature;BME280_humidity;BME280_pressure;Samples;Min_cycle;Max_cycle;Signal;HPM_P1;HPM_P2
2022/12/06 00:01:06;;;;;;;43.88;22.08;;;;;;;5.46;100.00;100544.38;5073609;28;20489;-77
2022/12/06 00:03:33;;;;;;;43.00;22.88;;;;;;;5.44;100.00;100544.84;5073026;28;20115;-77
2022/12/06 00:06:14;;;;;;;43.40;21.77;;;;;;;5.40;100.00;100535.63;5072801;28;20123;-78
2022/12/06 00:08:40;;;;;;;44.10;20.52;;;;;;;5.34;100.00;100532.59;5073902;28;20032;-78
2022/12/06 00:11:13;;;;;;;46.60;22.83;;;;;;;5.31;100.00;100529.84;5072078;28;20036;-76
2022/12/06 00:13:46;;;;;;;43.85;21.35;;;;;;;5.30;100.00;100540.38;5073163;28;20368;-78
2022/12/06 00:16:15;;;;;;;40.38;20.90;;;;;;;5.29;100.00;100543.69;5073183;28;20445;-76
2022/12/06 00:18:43;;;;;;;40.75;21.17;;;;;;;5.25;100.00;100545.84;5073508;28;20025;-78
2022/12/06 00:21:09;;;;;;;43.25;20.48;;;;;;;5.22;100.00;100556.03;5072016;28;20090;-78
2022/12/06 00:23:44;;;;;;;42.28;20.02;;;;;;;5.20;100.00;100563.41;5073365;28;20063;-78
2022/12/06 00:26:24;;;;;;;44.45;21.08;;;;;;;5.17;100.00;100561.44;5073541;28;20032;-77
2022/12/06 00:28:56;;;;;;;46.45;20.48;;;;;;;5.12;100.00;100562.78;5073425;28;20055;-77
2022/12/06 00:31:30;;;;;;;36.20;18.85;;;;;;;5.07;100.00;100562.56;5074167;28;20036;-78
2022/12/06 00:33:56;;;;;;;41.00;20.42;;;;;;;4.99;100.00;100558.34;5077319;28;20031;-78
2022/12/06 00:36:25;;;;;;;35.83;18.92;;;;;;;5.04;100.00;100563.47;5077342;28;20104;-77
2022/12/06 00:38:54;;;;;;;41.15;20.13;;;;;;;5.02;100.00;100561.06;5075607;28;20028;-77
2022/12/06 00:41:23;;;;;;;39.95;19.88;;;;;;;5.02;100.00;100555.41;5042089;28;20071;-78
2022/12/06 00:43:57;;;;;;;41.60;20.90;;;;;;;5.05;100.00;100565.84;5076817;28;20071;-77
2022/12/06 00:46:26;;;;;;;49.22;22.45;;;;;;;5.06;100.00;100560.97;5077065;28;20028;-78
2022/12/06 00:48:54;;;;;;;43.20;22.10;;;;;;;5.06;100.00;100563.78;5075575;28;20051;-78
2022/12/06 00:51:22;;;;;;;34.30;17.80;;;;;;;5.10;100.00;100556.81;5076628;28;20031;-77
2022/12/06 00:53:48;;;;;;;36.58;19.73;;;;;;;5.09;100.00;100548.75;5058822;28;20032;-77
2022/12/06 00:56:14;;;;;;;38.95;19.20;;;;;;;5.13;100.00;100552.25;5075503;28;20433;-77
2022/12/06 00:58:41;;;;;;;43.03;20.38;;;;;;;5.15;100.00;100553.41;5076790;28;20051;-77
2022/12/06 01:01:15;;;;;;;36.30;18.90;;;;;;;5.18;100.00;100537.56;5076479;28;20500;-77
2022/12/06 01:03:43;;;;;;;32.65;17.88;;;;;;;5.17;100.00;100535.94;5075096;28;20080;-77
2022/12/06 01:06:12;;;;;;;44.50;19.15;;;;;;;5.17;100.00;100525.41;5075290;28;20048;-78
2022/12/06 01:08:39;;;;;;;41.00;20.73;;;;;;;5.12;100.00;100513.84;5075660;28;20465;-77
2022/12/06 01:11:06;;;;;;;45.55;21.30;;;;;;;5.11;100.00;100506.59;5076349;28;20032;-77
2022/12/06 01:13:33;;;;;;;39.95;20.30;;;;;;;5.04;100.00;100501.97;5076693;28;20385;-77
2022/12/06 01:16:29;;;;;;;45.90;22.13;;;;;;;5.07;100.00;100505.91;5074988;28;20044;-77
2022/12/06 01:19:11;;;;;;;43.03;22.38;;;;;;;5.04;100.00;100499.13;5071735;28;20540;-78
2022/12/06 01:21:37;;;;;;;36.25;20.13;;;;;;;5.03;100.00;100497.53;5076627;28;20032;-77
2022/12/06 01:24:03;;;;;;;42.72;21.20;;;;;;;5.04;100.00;100490.63;5075265;28;20036;-77
2022/12/06 01:26:38;;;;;;;43.95;22.15;;;;;;;5.05;100.00;100474.44;5075618;28;20393;-77
2022/12/06 01:29:04;;;;;;;44.95;22.75;;;;;;;5.05;100.00;100477.25;5076120;28;20095;-77
2022/12/06 01:31:30;;;;;;;41.97;20.98;;;;;;;5.00;100.00;100472.97;5074834;28;20050;-77
2022/12/06 01:33:57;;;;;;;40.03;20.70;;;;;;;5.04;100.00;100470.81;5074781;28;20029;-77
2022/12/06 01:36:26;;;;;;;42.25;20.38;;;;;;;4.98;100.00;100455.63;5075820;28;20036;-78
2022/12/06 01:38:56;;;;;;;43.45;21.58;;;;;;;5.04;100.00;100461.50;5076114;28;20377;-77
2022/12/06 01:41:25;;;;;;;45.80;21.80;;;;;;;5.03;100.00;100449.38;5075449;28;20057;-76
2022/12/06 01:43:52;;;;;;;45.28;22.52;;;;;;;5.05;100.00;100452.56;5074691;28;20046;-76
2022/12/06 01:46:43;;;;;;;46.63;22.90;;;;;;;5.07;100.00;100444.41;5074669;28;20032;-76
2022/12/06 01:49:12;;;;;;;41.47;21.90;;;;;;;5.09;100.00;100444.75;5074468;28;20463;-76
2022/12/06 01:51:42;;;;;;;47.42;24.55;;;;;;;5.08;100.00;100456.53;5075879;28;20081;-77
2022/12/06 01:54:11;;;;;;;43.38;24.67;;;;;;;5.08;100.00;100462.19;5075843;28;20042;-76
2022/12/06 01:56:37;;;;;;;63.92;29.45;;;;;;;5.09;100.00;100458.13;5074569;28;20032;-77
2022/12/06 01:59:05;;;;;;;70.95;34.03;;;;;;;5.07;100.00;100457.75;5073789;28;20036;-76
2022/12/06 02:01:40;;;;;;;51.50;24.60;;;;;;;5.04;100.00;100456.66;5075554;28;20033;-76
2022/12/06 02:04:07;;;;;;;51.15;27.05;;;;;;;5.03;100.00;100451.41;5075336;28;20035;-77
2022/12/06 02:06:32;;;;;;;55.85;26.85;;;;;;;5.01;100.00;100453.91;5073886;28;20032;-77
2022/12/06 02:09:01;;;;;;;55.80;26.90;;;;;;;4.99;100.00;100456.41;5074170;28;20168;-77
2022/12/06 02:11:28;;;;;;;46.05;22.30;;;;;;;4.99;100.00;100451.53;5075426;28;20020;-77
2022/12/06 02:13:53;;;;;;;42.70;22.27;;;;;;;5.00;100.00;100447.47;5074019;28;20016;-77
2022/12/06 02:16:32;;;;;;;48.70;22.27;;;;;;;5.01;100.00;100442.56;5075369;28;20020;-77
2022/12/06 02:19:14;;;;;;;40.65;20.55;;;;;;;5.02;100.00;100444.16;5075200;28;20048;-77
2022/12/06 02:22:09;;;;;;;42.67;21.77;;;;;;;5.04;100.00;100436.81;5073945;28;20085;-77
2022/12/06 02:24:43;;;;;;;45.72;21.92;;;;;;;5.03;100.00;100438.06;5074786;28;20115;-78
2022/12/06 02:27:49;;;;;;;44.78;22.40;;;;;;;5.01;100.00;100425.59;5073504;28;20036;-76
2022/12/06 02:30:43;;;;;;;46.25;22.20;;;;;;;4.99;100.00;100420.41;5074978;28;20085;-77
2022/12/06 02:33:55;;;;;;;51.03;22.30;;;;;;;4.96;100.00;100424.09;5075042;28;20031;-77
2022/12/06 02:36:27;;;;;;;55.85;28.48;;;;;;;4.92;100.00;100417.78;5072933;28;20439;-77
2022/12/06 02:39:07;;;;;;;55.45;28.40;;;;;;;4.90;100.00;100408.94;5074903;28;20035;-77
2022/12/06 02:41:43;;;;;;;50.78;27.35;;;;;;;4.90;100.00;100406.13;5072917;28;20060;-77
2022/12/06 02:44:14;;;;;;;54.00;25.92;;;;;;;4.90;100.00;100401.25;5056946;28;20064;-76
2022/12/06 02:47:02;;;;;;;52.88;26.17;;;;;;;4.91;100.00;100410.50;5072808;28;20036;-76
2022/12/06 02:49:31;;;;;;;48.22;22.65;;;;;;;4.91;100.00;100416.19;5072100;28;20017;-76
2022/12/06 02:51:57;;;;;;;46.17;21.70;;;;;;;4.87;100.00;100398.50;5073366;28;20063;-76
2022/12/06 02:54:23;;;;;;;44.72;21.60;;;;;;;4.91;100.00;100408.47;5071645;28;20052;-77
2022/12/06 02:57:01;;;;;;;46.05;22.55;;;;;;;4.91;100.00;100411.31;5072591;28;20154;-77
2022/12/06 02:59:27;;;;;;;49.78;22.85;;;;;;;4.93;100.00;100417.31;5073194;28;20077;-77
2022/12/06 03:01:56;;;;;;;42.67;22.70;;;;;;;4.94;100.00;100410.44;5072924;28;20419;-77
2022/12/06 03:04:45;;;;;;;39.92;20.35;;;;;;;5.00;100.00;100424.03;5073268;28;20389;-77
2022/12/06 03:07:22;;;;;;;52.83;23.67;;;;;;;5.04;100.00;100419.84;5073401;28;20032;-76
2022/12/06 03:10:29;;;;;;;44.15;21.08;;;;;;;5.08;100.00;100416.88;5073278;28;20032;-77
2022/12/06 03:13:32;;;;;;;38.60;20.70;;;;;;;5.07;100.00;100413.25;5072711;28;20024;-76
2022/12/06 03:16:00;;;;;;;41.45;20.73;;;;;;;5.03;100.00;100406.13;5073485;28;20448;-76
2022/12/06 03:18:36;;;;;;;47.30;22.38;;;;;;;5.05;100.00;100410.09;5072384;28;20028;-76
2022/12/06 03:21:08;;;;;;;42.42;22.65;;;;;;;4.91;100.00;100390.69;5073679;28;20028;-77
2022/12/06 03:23:39;;;;;;;42.65;21.55;;;;;;;5.03;100.00;100411.78;5055681;28;20142;-77
2022/12/06 03:26:22;;;;;;;44.63;21.38;;;;;;;5.01;100.00;100400.91;5072563;28;20047;-76
2022/12/06 03:28:50;;;;;;;41.08;22.48;;;;;;;5.00;100.00;100399.34;5072749;28;20020;-76
2022/12/06 03:31:16;;;;;;;41.67;23.02;;;;;;;4.98;100.00;100404.63;5055690;28;20119;-77
2022/12/06 03:34:02;;;;;;;42.55;22.02;;;;;;;4.94;100.00;100399.09;5073562;28;20051;-76
2022/12/06 03:36:30;;;;;;;49.83;24.98;;;;;;;4.94;100.00;100392.63;5070654;28;20432;-77
2022/12/06 03:39:06;;;;;;;46.47;22.65;;;;;;;4.96;100.00;100392.97;5055824;28;20130;-76
2022/12/06 03:41:38;;;;;;;43.53;21.70;;;;;;;4.97;100.00;100393.75;5072132;28;20128;-77
2022/12/06 03:44:03;;;;;;;;;;;;;;;4.96;100.00;100395.03;5056270;28;20028;-77
2022/12/06 03:46:41;;;;;;;43.15;21.55;;;;;;;4.95;100.00;100382.91;5072274;28;20376;-76
2022/12/06 03:49:14;;;;;;;46.03;21.75;;;;;;;4.99;100.00;100388.44;5072435;28;20461;-77
2022/12/06 03:51:42;;;;;;;41.88;21.98;;;;;;;5.00;100.00;100392.88;5072578;28;20074;-76
2022/12/06 03:54:07;;;;;;;41.90;20.48;;;;;;;4.98;100.00;100395.34;5072150;28;20036;-78
2022/12/06 03:56:35;;;;;;;42.95;21.58;;;;;;;4.96;100.00;100397.84;5073515;28;20028;-78
2022/12/06 03:59:06;;;;;;;40.35;21.75;;;;;;;4.91;100.00;100393.53;5071987;28;20029;-77
2022/12/06 04:01:32;;;;;;;47.83;23.58;;;;;;;4.87;100.00;100387.97;5073699;28;20043;-77
2022/12/06 04:03:59;;;;;;;46.75;23.25;;;;;;;4.88;100.00;100389.56;5072086;28;20119;-77
2022/12/06 04:06:26;;;;;;;40.60;23.08;;;;;;;4.91;100.00;100379.38;5071633;28;20501;-78
2022/12/06 04:11:39;;;;;;;40.40;20.25;;;;;;;4.94;100.00;100382.09;5073481;28;20036;-77
2022/12/06 04:14:06;;;;;;;43.42;20.70;;;;;;;4.97;100.00;100377.56;5073190;28;20021;-78
2022/12/06 04:19:38;;;;;;;40.25;21.23;;;;;;;5.01;100.00;100383.09;5072620;28;20077;-77
2022/12/06 04:24:54;;;;;;;41.92;20.20;;;;;;;5.04;100.00;100376.56;5072056;28;20032;-77
2022/12/06 04:38:42;;;;;;;45.72;22.10;;;;;;;5.04;100.00;100376.56;5072258;28;20078;-77
2022/12/06 04:44:23;;;;;;;44.05;21.50;;;;;;;4.93;100.00;100372.03;5071953;28;20031;-78
2022/12/06 04:46:49;;;;;;;43.22;20.77;;;;;;;4.93;100.00;100359.91;5071764;28;20020;-77
2022/12/06 04:49:17;;;;;;;41.97;21.10;;;;;;;4.91;100.00;100366.00;5071864;28;20037;-77
2022/12/06 04:51:48;;;;;;;40.63;21.42;;;;;;;4.91;100.00;100366.00;5072325;28;20021;-78
2022/12/06 04:54:14;;;;;;;44.30;22.58;;;;;;;4.93;100.00;100365.56;5072858;28;20345;-78
2022/12/06 04:56:40;;;;;;;40.63;22.15;;;;;;;4.88;100.00;100366.13;5073091;28;20107;-77
2022/12/06 04:59:05;;;;;;;42.70;21.80;;;;;;;4.88;100.00;100363.28;5073217;28;20029;-77
2022/12/06 05:01:31;;;;;;;44.17;23.05;;;;;;;4.83;100.00;100359.00;5072984;28;20044;-78
2022/12/06 05:03:57;;;;;;;39.58;22.00;;;;;;;4.82;100.00;100362.28;5072975;28;20054;-78
2022/12/06 05:06:23;;;;;;;45.85;22.50;;;;;;;4.80;100.00;100353.44;5071539;28;20430;-77
2022/12/06 05:08:49;;;;;;;41.05;21.52;;;;;;;4.79;100.00;100352.66;5072588;28;20028;-77
2022/12/06 05:11:14;;;;;;;42.25;20.85;;;;;;;4.78;100.00;100353.91;5072937;28;20033;-78
2022/12/06 05:13:40;;;;;;;44.30;22.55;;;;;;;4.75;100.00;100340.66;5072524;28;20462;-78
2022/12/06 05:16:07;;;;;;;40.63;20.65;;;;;;;4.76;100.00;100350.72;5072955;28;20024;-78
2022/12/06 05:18:34;;;;;;;43.38;20.55;;;;;;;4.74;100.00;100344.72;5075166;28;20067;-78
2022/12/06 05:21:01;;;;;;;44.28;22.48;;;;;;;4.73;100.00;100342.34;5058537;28;20032;-78
2022/12/06 05:23:29;;;;;;;43.67;21.70;;;;;;;4.72;100.00;100346.41;5076093;28;20074;-78
2022/12/06 05:26:00;;;;;;;43.53;21.58;;;;;;;4.68;100.00;100346.53;5074867;28;20040;-78
2022/12/06 05:28:28;;;;;;;45.13;21.83;;;;;;;4.64;100.00;100348.69;5074766;28;20044;-77
2022/12/06 05:30:53;;;;;;;50.97;24.10;;;;;;;4.60;100.00;100345.16;5074789;28;20060;-78
2022/12/06 05:33:27;;;;;;;45.08;22.70;;;;;;;4.59;100.00;100348.44;5075069;28;20052;-77
2022/12/06 05:35:53;;;;;;;49.03;22.40;;;;;;;4.57;100.00;100353.75;5075997;28;20115;-78
2022/12/06 05:38:19;;;;;;;54.22;23.85;;;;;;;4.47;100.00;100350.00;5074525;28;20218;-77
2022/12/06 05:40:46;;;;;;;55.00;23.42;;;;;;;4.42;100.00;100350.56;5058324;28;20049;-77
2022/12/06 05:43:14;;;;;;;42.40;22.35;;;;;;;4.38;100.00;100347.03;5075557;28;20751;-77
2022/12/06 05:45:40;;;;;;;47.85;22.20;;;;;;;4.32;100.00;100358.13;5074579;28;20040;-77
2022/12/06 05:48:05;;;;;;;46.47;22.63;;;;;;;4.28;100.00;100354.59;5074290;28;20031;-78
2022/12/06 05:50:32;;;;;;;49.63;20.83;;;;;;;4.26;100.00;100359.94;5074492;28;20466;-80
2022/12/06 05:52:59;;;;;;;41.63;21.55;;;;;;;4.23;100.00;100352.31;5076848;28;20032;-78
2022/12/06 05:55:25;;;;;;;48.17;20.67;;;;;;;4.25;100.00;100355.50;5073791;28;20032;-78
2022/12/06 05:57:51;;;;;;;43.72;22.25;;;;;;;4.12;100.00;100357.50;5077695;28;20021;-79
2022/12/06 06:00:18;;;;;;;43.08;20.30;;;;;;;4.09;100.00;100361.22;5075601;28;20398;-77
2022/12/06 06:02:43;;;;;;;47.80;21.00;;;;;;;4.10;100.00;100368.47;5075137;28;20027;-76
2022/12/06 06:05:17;;;;;;;42.50;19.83;;;;;;;4.06;100.00;100362.13;5075422;28;20013;-78
2022/12/06 06:07:45;;;;;;;41.80;21.75;;;;;;;4.06;100.00;100362.91;5075087;28;20032;-77
2022/12/06 06:10:10;;;;;;;51.97;22.20;;;;;;;4.00;100.00;100355.44;5075128;28;20033;-76
2022/12/06 06:13:01;;;;;;;52.13;22.08;;;;;;;4.00;100.00;100367.53;5075424;28;20020;-75
2022/12/06 06:15:27;;;;;;;57.58;25.05;;;;;;;3.99;100.00;100360.28;5074596;28;20461;-79
2022/12/06 06:17:53;;;;;;;58.88;26.95;;;;;;;3.95;100.00;100355.97;5075343;28;20035;-78
2022/12/06 06:20:28;;;;;;;54.47;26.33;;;;;;;3.94;100.00;100365.69;5073477;28;20041;-79
2022/12/06 06:22:54;;;;;;;57.30;24.77;;;;;;;3.95;100.00;100355.97;5073959;28;20048;-74
2022/12/06 06:25:19;;;;;;;49.70;23.67;;;;;;;3.92;100.00;100360.47;5073503;28;20044;-74
2022/12/06 06:27:45;;;;;;;53.55;27.05;;;;;;;3.94;100.00;100360.03;5071343;28;20028;-77
2022/12/06 06:30:12;;;;;;;60.17;27.98;;;;;;;3.98;100.00;100364.34;5072255;28;20031;-76
2022/12/06 06:32:37;;;;;;;63.30;29.52;;;;;;;3.93;100.00;100370.53;5072467;28;20396;-76
2022/12/06 06:35:04;;;;;;;57.78;28.48;;;;;;;3.94;100.00;100372.13;5071171;28;20031;-76
2022/12/06 06:37:29;;;;;;;57.92;26.52;;;;;;;3.97;100.00;100373.28;5073051;28;20016;-75
2022/12/06 06:39:55;;;;;;;53.85;24.02;;;;;;;3.94;100.00;100365.69;5071567;28;20484;-76
2022/12/06 06:42:21;;;;;;;41.22;19.90;;;;;;;3.94;100.00;100374.97;5074750;28;20029;-76
2022/12/06 06:44:46;;;;;;;45.25;22.15;;;;;;;3.95;100.00;100368.06;5074543;28;20023;-75
2022/12/06 06:47:12;;;;;;;39.33;17.30;;;;;;;3.96;100.00;100363.22;5074300;28;20028;-74
2022/12/06 06:49:37;;;;;;;33.72;15.50;;;;;;;3.97;100.00;100367.63;5073132;28;20157;-75
2022/12/06 06:52:03;;;;;;;31.67;15.95;;;;;;;3.92;100.00;100368.19;5074079;28;20033;-75
2022/12/06 06:54:28;;;;;;;27.73;13.77;;;;;;;3.87;100.00;100361.00;5074351;28;20027;-76
2022/12/06 06:56:55;;;;;;;27.88;14.38;;;;;;;3.82;100.00;100357.94;5074393;28;20024;-76
2022/12/06 06:59:21;;;;;;;22.85;12.75;;;;;;;3.78;100.00;100369.31;5074102;28;20448;-75
2022/12/06 07:01:46;;;;;;;26.40;11.80;;;;;;;3.74;100.00;100362.16;5074102;28;20024;-76
2022/12/06 07:04:11;;;;;;;29.40;12.43;;;;;;;3.69;100.00;100360.69;5074017;28;20115;-79
2022/12/06 07:06:37;;;;;;;19.70;11.25;;;;;;;3.74;100.00;100367.81;5055995;28;20028;-78
2022/12/06 07:09:02;;;;;;;21.63;11.90;;;;;;;3.72;100.00;100348.50;5074017;28;20078;-79
2022/12/06 07:11:28;;;;;;;19.85;10.95;;;;;;;3.77;100.00;100358.47;5056263;28;20020;-79
2022/12/06 07:13:53;;;;;;;24.83;12.93;;;;;;;3.73;100.00;100361.38;5072607;28;20021;-76
2022/12/06 07:16:18;;;;;;;23.35;12.30;;;;;;;3.70;100.00;100355.81;5074785;28;20024;-80
2022/12/06 07:18:46;;;;;;;25.50;12.13;;;;;;;3.70;100.00;100365.09;5072611;28;20115;-77
2022/12/06 07:21:13;;;;;;;21.02;11.77;;;;;;;3.68;100.00;100361.91;5073519;28;20024;-75
2022/12/06 07:23:38;;;;;;;17.48;9.98;;;;;;;3.60;100.00;100355.66;5074001;28;20020;-76
2022/12/06 07:26:05;;;;;;;18.77;10.38;;;;;;;3.56;100.00;100340.06;5073778;28;20032;-76
2022/12/06 07:28:30;;;;;;;24.17;9.82;;;;;;;3.57;100.00;100352.94;5073667;28;20047;-74
2022/12/06 07:30:56;;;;;;;15.50;8.55;;;;;;;3.59;100.00;100353.28;5072344;28;20374;-76
2022/12/06 07:33:21;;;;;;;15.13;7.53;;;;;;;3.56;100.00;100354.97;5073350;28;20031;-77
2022/12/06 07:35:51;;;;;;;16.00;9.20;;;;;;;3.55;100.00;100350.56;5073686;28;20021;-77
2022/12/06 07:38:17;;;;;;;13.35;8.57;;;;;;;3.59;100.00;100345.59;5073668;28;20027;-76
2022/12/06 07:40:43;;;;;;;16.40;8.98;;;;;;;3.55;100.00;100350.56;5072570;28;20135;-76
2022/12/06 07:45:53;;;;;;;13.05;7.90;;;;;;;3.56;100.00;100346.50;5072511;28;20461;-76
2022/12/06 07:48:19;;;;;;;11.73;7.45;;;;;;;3.50;100.00;100348.25;5072220;28;20063;-76
2022/12/06 07:50:46;;;;;;;16.23;8.85;;;;;;;3.55;100.00;100350.56;5073459;28;20031;-76
2022/12/06 07:53:11;;;;;;;23.85;9.48;;;;;;;3.55;100.00;100341.28;5073300;28;20111;-76
2022/12/06 07:55:36;;;;;;;17.08;9.38;;;;;;;3.51;100.00;100324.44;5072241;28;20462;-77
2022/12/06 07:58:02;;;;;;;20.27;10.10;;;;;;;3.58;100.00;100331.91;5072910;28;20060;-78
2022/12/06 08:00:27;;;;;;;22.30;11.02;;;;;;;3.57;100.00;100333.16;5059234;28;20086;-77
2022/12/06 08:02:52;;;;;;;19.33;9.63;;;;;;;3.54;100.00;100337.66;5074134;28;20021;-77
2022/12/06 08:05:18;;;;;;;17.63;9.77;;;;;;;3.55;100.00;100335.63;5073751;28;20017;-78
2022/12/06 08:07:43;;;;;;;19.20;10.75;;;;;;;3.55;100.00;100333.59;5073240;28;20085;-79
2022/12/06 08:10:09;;;;;;;25.45;10.93;;;;;;;3.58;100.00;100329.88;5073676;28;20105;-79
2022/12/06 08:12:34;;;;;;;22.80;12.90;;;;;;;3.63;100.00;100328.53;5073185;28;20419;-80
2022/12/06 08:15:00;;;;;;;26.88;10.73;;;;;;;3.64;100.00;100332.97;5071976;28;20027;-80
2022/12/06 08:17:26;;;;;;;24.70;11.15;;;;;;;3.73;100.00;100326.66;5073327;28;20052;-80
2022/12/06 08:19:51;;;;;;;24.40;12.18;;;;;;;3.76;100.00;100325.78;5073277;28;20052;-79
2022/12/06 08:22:16;;;;;;;36.05;11.52;;;;;;;3.76;100.00;100320.94;5073583;28;20032;-81
2022/12/06 08:24:42;;;;;;;23.27;10.25;;;;;;;3.76;100.00;100325.78;5073654;28;20484;-77
2022/12/06 08:27:07;;;;;;;17.02;10.32;;;;;;;3.74;100.00;100325.44;5074256;28;20096;-78
2022/12/06 08:29:33;;;;;;;20.45;9.70;;;;;;;3.72;100.00;100325.91;5073116;28;20484;-78
2022/12/06 08:31:58;;;;;;;24.20;9.88;;;;;;;3.74;100.00;100331.09;5071837;28;20017;-78
2022/12/06 08:34:24;;;;;;;15.65;8.75;;;;;;;3.68;100.00;100330.03;5071623;28;20025;-78
2022/12/06 08:36:49;;;;;;;26.65;9.65;;;;;;;3.69;100.00;100328.81;5073029;28;20039;-80
2022/12/06 08:39:14;;;;;;;23.20;9.85;;;;;;;3.75;100.00;100336.31;5071628;28;20055;-80
2022/12/06 08:41:56;;;;;;;19.20;9.05;;;;;;;3.83;100.00;100336.88;5072790;28;20044;-79
2022/12/06 08:44:23;;;;;;;15.70;8.55;;;;;;;3.86;100.00;100324.69;5072787;28;20021;-79
2022/12/06 08:46:48;;;;;;;16.30;8.70;;;;;;;3.99;100.00;100332.00;5072046;28;20024;-76
2022/12/06 08:49:16;;;;;;;17.10;8.00;;;;;;;4.07;100.00;100333.38;5072735;28;20032;-76
2022/12/06 08:51:41;;;;;;;19.52;7.38;;;;;;;4.12;100.00;100329.22;5064983;28;20025;-76
2022/12/06 08:54:12;;;;;;;13.95;7.07;;;;;;;4.16;100.00;100329.13;5054663;28;20067;-76
2022/12/06 08:56:37;;;;;;;19.17;9.15;;;;;;;4.14;100.00;100321.09;5056052;28;20036;-74
2022/12/06 08:59:03;;;;;;;19.02;8.48;;;;;;;4.20;100.00;100307.19;5054318;28;20037;-75
2022/12/06 09:01:30;;;;;;;13.07;7.53;;;;;;;4.21;100.00;100306.75;5055598;28;20040;-76
2022/12/06 09:03:59;;;;;;;13.68;7.68;;;;;;;4.16;100.00;100301.66;5055593;28;20190;-76
2022/12/06 09:06:26;;;;;;;16.02;6.93;;;;;;;4.19;100.00;100303.56;5058272;28;20378;-79
2022/12/06 09:08:51;;;;;;;18.83;8.07;;;;;;;4.17;100.00;100293.97;5076163;28;20040;-74
2022/12/06 09:11:17;;;;;;;9.70;6.05;;;;;;;4.21;100.00;100300.31;5078063;28;20035;-76
2022/12/06 09:13:43;;;;;;;17.17;7.95;;;;;;;4.16;100.00;100306.50;5078021;28;20055;-77
2022/12/06 09:16:12;;;;;;;11.60;6.28;;;;;;;4.10;100.00;100305.47;5073543;28;20123;-77
2022/12/06 09:18:37;;;;;;;11.68;6.88;;;;;;;4.15;100.00;100313.41;5073799;28;20036;-77
2022/12/06 09:21:11;;;;;;;12.20;7.80;;;;;;;4.10;100.00;100305.47;5075451;28;20028;-78
2022/12/06 09:23:37;;;;;;;10.05;6.15;;;;;;;4.06;100.00;100309.22;5055263;28;20094;-79
2022/12/06 09:26:04;;;;;;;14.25;7.53;;;;;;;4.04;100.00;100300.38;5055210;28;20108;-78
2022/12/06 09:28:29;;;;;;;10.48;7.00;;;;;;;4.06;100.00;100314.06;5053772;28;20024;-78
2022/12/06 09:30:55;;;;;;;13.40;7.18;;;;;;;4.03;100.00;100298.78;5053505;28;20116;-77
2022/12/06 09:33:21;;;;;;;15.88;7.93;;;;;;;4.04;100.00;100308.06;5056105;28;20095;-77
2022/12/06 09:35:47;;;;;;;10.60;7.32;;;;;;;4.01;100.00;100304.09;5055651;28;20386;-77
2022/12/06 09:38:12;;;;;;;15.70;7.03;;;;;;;4.00;100.00;100302.50;5056655;28;20029;-78
2022/12/06 09:40:45;;;;;;;20.15;8.40;;;;;;;4.04;100.00;100293.91;5058902;28;20111;-78
2022/12/06 09:43:38;;;;;;;19.67;8.32;;;;;;;4.08;100.00;100305.91;5075710;28;20044;-77
2022/12/06 09:46:34;;;;;;;15.27;7.57;;;;;;;4.11;100.00;100298.56;5067122;28;20101;-78
2022/12/06 09:49:18;;;;;;;14.25;8.05;;;;;;;4.10;100.00;100303.44;5054403;28;20398;-76
2022/12/06 09:52:36;;;;;;;11.32;7.25;;;;;;;4.13;100.00;100305.34;5074920;28;20033;-76
2022/12/06 09:55:07;;;;;;;13.13;8.18;;;;;;;4.13;100.00;100307.38;5027463;28;20037;-75
2022/12/06 09:57:44;;;;;;;14.70;8.80;;;;;;;4.10;100.00;100292.13;5052705;28;20120;-74
2022/12/06 10:00:14;;;;;;;19.88;8.02;;;;;;;4.03;100.00;100287.47;5067139;28;20028;-76
2022/12/06 10:03:03;;;;;;;18.50;8.02;;;;;;;4.09;100.00;100293.38;5072832;28;20131;-78
2022/12/06 10:05:57;;;;;;;22.30;9.07;;;;;;;4.04;100.00;100280.56;5071990;28;20082;-78
2022/12/06 10:08:31;;;;;;;13.43;8.45;;;;;;;4.11;100.00;100271.09;5074628;28;20099;-79
2022/12/06 10:11:16;;;;;;;16.10;9.13;;;;;;;4.23;100.00;100263.88;5074579;28;20416;-78
2022/12/06 10:14:00;;;;;;;17.85;9.80;;;;;;;4.29;100.00;100267.72;5056566;28;20036;-77
2022/12/06 10:16:51;;;;;;;21.23;9.13;;;;;;;4.30;100.00;100266.50;5075284;28;20108;-76
2022/12/06 10:19:35;;;;;;;17.60;9.90;;;;;;;4.24;100.00;100256.97;5073675;28;20039;-77
2022/12/06 10:22:15;;;;;;;15.70;9.20;;;;;;;4.20;100.00;100254.25;5074610;28;20051;-77
2022/12/06 10:24:40;;;;;;;27.48;9.38;;;;;;;4.16;100.00;100245.09;5073142;28;20143;-77
2022/12/06 10:27:10;;;;;;;22.33;9.40;;;;;;;4.15;100.00;100248.38;5073023;28;20095;-76
2022/12/06 10:29:47;;;;;;;29.02;10.18;;;;;;;4.18;100.00;100241.81;5072621;28;20104;-77
2022/12/06 10:32:18;;;;;;;17.60;10.02;;;;;;;4.19;100.00;100243.38;5074609;28;20032;-77
2022/12/06 10:34:54;;;;;;;18.90;9.38;;;;;;;4.18;100.00;100247.44;5072853;28;20086;-75
2022/12/06 10:37:23;;;;;;;16.33;9.18;;;;;;;4.14;100.00;100241.91;5074719;28;20060;-74
2022/12/06 10:40:18;;;;;;;15.82;8.35;;;;;;;4.05;100.00;100238.97;5074273;28;20114;-78
2022/12/06 10:42:44;;;;;;;17.25;8.57;;;;;;;3.99;100.00;100235.91;5067974;28;20048;-77
2022/12/06 10:48:24;;;;;;;21.95;10.20;;;;;;;4.06;100.00;100235.69;5062195;28;20119;-74
2022/12/06 10:50:54;;;;;;;23.80;10.70;;;;;;;4.04;100.00;100235.34;5074570;28;20036;-73
2022/12/06 10:53:21;;;;;;;27.13;10.85;;;;;;;4.00;100.00;100228.22;5072897;28;20027;-76
2022/12/06 10:55:57;;;;;;;17.40;10.50;;;;;;;3.96;100.00;100233.19;5056036;28;20043;-78
2022/12/06 10:58:43;;;;;;;19.42;10.13;;;;;;;3.86;100.00;100231.44;5079095;28;20074;-78
2022/12/06 11:01:21;;;;;;;16.30;9.27;;;;;;;3.81;100.00;100234.81;5077404;28;20029;-73
2022/12/06 11:04:00;;;;;;;13.48;8.82;;;;;;;3.77;100.00;100220.81;5072377;28;20056;-75
2022/12/06 11:06:36;;;;;;;14.57;8.73;;;;;;;3.73;100.00;100213.63;5073895;28;20035;-75
2022/12/06 11:09:30;;;;;;;15.18;9.10;;;;;;;3.81;100.00;100215.81;5072634;28;20025;-74
2022/12/06 11:11:56;;;;;;;13.00;8.18;;;;;;;3.92;100.00;100216.31;5073981;28;20535;-74
2022/12/06 11:14:29;;;;;;;13.32;7.63;;;;;;;3.94;100.00;100205.38;5073047;28;20024;-76
2022/12/06 11:16:57;;;;;;;13.20;8.43;;;;;;;3.95;100.00;100206.94;5073224;28;20062;-77
2022/12/06 11:19:38;;;;;;;11.82;8.25;;;;;;;3.99;100.00;100201.19;5072021;28;20028;-78
2022/12/06 11:22:29;;;;;;;23.85;8.93;;;;;;;4.14;100.00;100202.34;5074734;28;20020;-78
2022/12/06 11:25:12;;;;;;;11.17;7.90;;;;;;;4.25;100.00;100197.13;5073898;28;20032;-74
2022/12/06 11:27:47;;;;;;;12.00;7.88;;;;;;;4.33;100.00;100203.34;5074046;28;20279;-75
2022/12/06 11:30:15;;;;;;;11.85;7.75;;;;;;;4.29;100.00;100194.97;5073445;28;20029;-77
2022/12/06 11:32:41;;;;;;;11.60;7.78;;;;;;;4.34;100.00;100188.75;5075338;28;20021;-74
2022/12/06 11:35:12;;;;;;;12.52;8.65;;;;;;;4.37;100.00;100187.06;5072409;28;20028;-73
2022/12/06 11:37:37;;;;;;;14.48;8.32;;;;;;;4.45;100.00;100197.69;5073969;28;20051;-77
2022/12/06 11:40:29;;;;;;;9.95;7.10;;;;;;;4.53;100.00;100186.13;5074727;28;20466;-73
2022/12/06 11:42:58;;;;;;;11.68;7.82;;;;;;;4.46;100.00;100187.94;5070953;28;20473;-73
2022/12/06 11:45:26;;;;;;;13.85;7.95;;;;;;;4.36;100.00;100171.34;5073506;28;20389;-73
2022/12/06 11:48:00;;;;;;;11.00;7.15;;;;;;;4.46;100.00;100182.28;5072822;28;20049;-73
2022/12/06 11:50:28;;;;;;;8.60;6.80;;;;;;;4.55;100.00;100178.00;5072604;28;20032;-73
2022/12/06 11:53:06;;;;;;;11.68;6.80;;;;;;;4.63;100.00;100177.31;5073226;28;20369;-73
2022/12/06 11:55:41;;;;;;;16.38;7.50;;;;;;;4.68;100.00;100165.41;5072105;28;20035;-73
2022/12/06 11:58:10;;;;;;;12.27;8.13;;;;;;;4.69;100.00;100160.53;5055527;28;20036;-73